createdAt,value
2022-12-23T00:01:26.624Z,3.42
2022-12-23T00:03:57.243Z,4.43
2022-12-23T00:06:23.857Z,3.47
2022-12-23T00:08:57.997Z,4.47
2022-12-23T00:11:25.945Z,4.13
2022-12-23T00:14:16.298Z,3.63
2022-12-23T00:16:46.998Z,4.03
2022-12-23T00:19:13.586Z,3.88
2022-12-23T00:21:40.207Z,3.60
2022-12-23T00:24:06.857Z,3.38
2022-12-23T00:26:33.403Z,3.97
2022-12-23T00:28:59.959Z,3.92
2022-12-23T00:31:26.641Z,4.00
2022-12-23T00:33:56.554Z,4.38
2022-12-23T00:36:27.646Z,3.63
2022-12-23T00:39:14.370Z,4.10
2022-12-23T00:41:59.677Z,3.80
2022-12-23T00:44:26.697Z,3.92
2022-12-23T00:46:53.310Z,4.25
2022-12-23T00:49:39.375Z,4.22
2022-12-23T00:52:08.235Z,4.05
2022-12-23T00:54:34.913Z,4.18
2022-12-23T00:57:01.856Z,3.80
2022-12-23T00:59:28.503Z,3.67
2022-12-23T01:02:14.054Z,3.90
2022-12-23T01:04:59.464Z,4.07
2022-12-23T01:07:26.034Z,3.85
2022-12-23T01:09:52.600Z,4.07
2022-12-23T01:12:19.313Z,4.20
2022-12-23T01:14:45.969Z,3.70
2022-12-23T01:17:12.595Z,4.60
2022-12-23T01:19:39.269Z,4.20
2022-12-23T01:22:05.874Z,4.30
2022-12-23T01:24:33.413Z,3.90
2022-12-23T01:27:00.828Z,3.72
2022-12-23T01:29:28.901Z,4.07
2022-12-23T01:31:55.694Z,3.97
2022-12-23T01:34:22.477Z,8.60
2022-12-23T01:36:49.027Z,3.78
2022-12-23T01:39:15.666Z,4.03
2022-12-23T01:42:00.955Z,4.00
2022-12-23T01:45:02.360Z,4.65
2022-12-23T01:47:37.757Z,4.68
2022-12-23T01:50:19.545Z,4.40
2022-12-23T01:52:52.648Z,4.72
2022-12-23T01:55:23.607Z,4.10
2022-12-23T01:57:51.556Z,4.40
2022-12-23T02:00:36.860Z,4.72
2022-12-23T02:03:42.163Z,4.07
2022-12-23T02:06:44.977Z,4.20
2022-12-23T02:09:21.090Z,4.73
2022-12-23T02:12:35.329Z,3.85
2022-12-23T02:15:36.463Z,4.55
2022-12-23T02:18:21.110Z,4.00
2022-12-23T02:21:08.893Z,4.32
2022-12-23T02:23:57.281Z,4.53
2022-12-23T02:26:54.819Z,4.78
2022-12-23T02:29:46.172Z,4.57
2022-12-23T02:32:34.327Z,4.43
2022-12-23T02:35:10.311Z,4.03
2022-12-23T02:38:01.448Z,4.43
2022-12-23T02:40:40.586Z,4.28
2022-12-23T02:43:36.366Z,3.95
2022-12-23T02:46:05.606Z,4.95
2022-12-23T02:48:40.813Z,4.80
2022-12-23T02:51:10.962Z,4.13
2022-12-23T02:53:50.970Z,3.95
2022-12-23T02:56:20.967Z,3.80
2022-12-23T02:59:01.689Z,4.30
2022-12-23T03:01:29.787Z,3.58
2022-12-23T03:03:56.548Z,4.60
2022-12-23T03:06:27.211Z,4.20
2022-12-23T03:08:56.363Z,3.55
2022-12-23T03:11:28.461Z,4.05
2022-12-23T03:14:01.015Z,4.13
2022-12-23T03:16:37.125Z,4.30
2022-12-23T03:19:26.716Z,3.70
2022-12-23T03:22:16.219Z,4.07
2022-12-23T03:24:42.707Z,3.95
2022-12-23T03:27:15.096Z,3.80
2022-12-23T03:29:54.619Z,4.50
2022-12-23T03:32:23.517Z,4.45
2022-12-23T03:34:54.209Z,4.03
2022-12-23T03:37:24.789Z,3.92
2022-12-23T03:40:07.580Z,3.58
2022-12-23T03:42:37.302Z,4.45
2022-12-23T03:45:37.494Z,4.55
2022-12-23T03:48:07.059Z,4.22
2022-12-23T03:50:35.220Z,3.92
2022-12-23T03:53:16.773Z,3.80
2022-12-23T03:55:49.587Z,3.53
2022-12-23T03:58:21.870Z,4.55
2022-12-23T04:00:59.803Z,3.78
2022-12-23T04:04:01.782Z,5.47
2022-12-23T04:06:34.011Z,4.75
2022-12-23T04:09:02.048Z,3.30
2022-12-23T04:11:29.906Z,3.40
2022-12-23T04:13:56.577Z,3.85
2022-12-23T04:16:23.304Z,3.30
2022-12-23T04:18:49.963Z,4.38
2022-12-23T04:21:16.518Z,3.95
2022-12-23T04:23:43.083Z,3.17
2022-12-23T04:26:09.649Z,4.15
2022-12-23T04:28:36.205Z,3.67
2022-12-23T04:31:02.830Z,4.28
2022-12-23T04:33:29.451Z,3.78
2022-12-23T04:35:55.996Z,3.95
2022-12-23T04:38:22.631Z,4.35
2022-12-23T04:40:49.267Z,3.45
2022-12-23T04:43:15.854Z,3.83
2022-12-23T04:45:42.395Z,4.87
2022-12-23T04:48:09.529Z,4.60
2022-12-23T04:50:36.082Z,3.75
2022-12-23T04:53:02.668Z,3.78
2022-12-23T04:55:29.222Z,3.88
2022-12-23T04:57:55.791Z,2.67
2022-12-23T05:00:22.439Z,3.65
2022-12-23T05:02:49.157Z,4.53
2022-12-23T05:05:15.891Z,3.80
2022-12-23T05:07:42.468Z,3.72
2022-12-23T05:10:09.885Z,3.17
2022-12-23T05:12:36.440Z,3.35
2022-12-23T05:15:03.034Z,4.00
2022-12-23T05:17:29.653Z,3.58
2022-12-23T05:19:56.223Z,3.92
2022-12-23T05:22:22.804Z,3.35
2022-12-23T05:24:49.367Z,4.57
2022-12-23T05:27:15.917Z,3.50
2022-12-23T05:29:42.489Z,3.55
2022-12-23T05:32:09.228Z,3.90
2022-12-23T05:34:35.855Z,3.78
2022-12-23T05:37:02.399Z,3.95
2022-12-23T05:39:28.977Z,3.70
2022-12-23T05:41:55.568Z,4.07
2022-12-23T05:44:22.232Z,3.67
2022-12-23T05:46:48.797Z,3.90
2022-12-23T05:49:15.432Z,3.90
2022-12-23T05:51:41.997Z,4.20
2022-12-23T05:54:08.600Z,3.80
2022-12-23T05:56:35.144Z,3.47
2022-12-23T05:59:02.882Z,3.65
2022-12-23T06:01:29.507Z,4.15
2022-12-23T06:03:56.175Z,4.25
2022-12-23T06:06:22.844Z,3.50
2022-12-23T06:08:52.048Z,4.05
2022-12-23T06:11:22.382Z,4.15
2022-12-23T06:13:48.941Z,3.92
2022-12-23T06:16:15.537Z,4.60
2022-12-23T06:18:42.167Z,6.20
2022-12-23T06:21:08.799Z,4.75
2022-12-23T06:23:35.352Z,4.13
2022-12-23T06:26:02.629Z,4.57
2022-12-23T06:28:29.401Z,4.93
2022-12-23T06:30:57.184Z,6.10
2022-12-23T06:33:24.571Z,5.53
2022-12-23T06:35:51.118Z,6.32
2022-12-23T06:38:17.714Z,3.60
2022-12-23T06:40:44.251Z,3.33
2022-12-23T06:43:13.334Z,4.88
2022-12-23T06:45:40.668Z,2.95
2022-12-23T06:48:07.496Z,3.58
2022-12-23T06:50:34.071Z,5.82
2022-12-23T06:53:00.614Z,5.63
2022-12-23T06:55:27.259Z,4.13
2022-12-23T06:57:53.804Z,3.83
2022-12-23T07:00:20.571Z,5.03
2022-12-23T07:02:47.231Z,4.80
2022-12-23T07:05:13.972Z,4.60
2022-12-23T07:07:40.516Z,4.05
2022-12-23T07:10:07.798Z,3.20
2022-12-23T07:12:34.359Z,3.35
2022-12-23T07:15:00.913Z,6.18
2022-12-23T07:17:27.911Z,3.08
2022-12-23T07:19:54.475Z,4.95
2022-12-23T07:22:21.268Z,2.80
2022-12-23T07:24:47.816Z,3.58
2022-12-23T07:27:14.391Z,2.90
2022-12-23T07:29:40.951Z,3.15
2022-12-23T07:32:07.583Z,3.22
2022-12-23T07:34:34.835Z,3.30
2022-12-23T07:37:02.034Z,3.50
2022-12-23T07:39:28.804Z,2.42
2022-12-23T07:42:16.488Z,2.63
2022-12-23T07:44:41.919Z,3.53
2022-12-23T07:47:08.773Z,4.22
2022-12-23T07:49:35.386Z,2.92
2022-12-23T07:52:01.982Z,4.10
2022-12-23T07:54:28.555Z,4.13
2022-12-23T07:56:56.126Z,2.13
2022-12-23T07:59:25.749Z,3.85
2022-12-23T08:01:52.573Z,3.25
2022-12-23T08:04:19.239Z,2.70
2022-12-23T08:06:45.835Z,3.10
2022-12-23T08:09:12.416Z,2.63
2022-12-23T08:11:38.979Z,2.60
2022-12-23T08:14:05.610Z,2.92
2022-12-23T08:16:36.516Z,3.05
2022-12-23T08:19:06.233Z,2.92
2022-12-23T08:21:32.806Z,2.08
2022-12-23T08:23:59.413Z,2.25
2022-12-23T08:26:26.261Z,2.35
2022-12-23T08:28:53.602Z,1.92
2022-12-23T08:31:26.447Z,2.78
2022-12-23T08:33:55.957Z,2.25
2022-12-23T08:36:25.420Z,3.28
2022-12-23T08:38:53.779Z,2.25
2022-12-23T08:41:24.114Z,2.45
2022-12-23T08:43:51.330Z,2.67
2022-12-23T08:46:18.118Z,2.55
2022-12-23T08:48:49.098Z,3.10
2022-12-23T08:51:18.680Z,2.60
2022-12-23T08:53:46.352Z,3.35
2022-12-23T08:56:15.824Z,2.95
2022-12-23T08:58:45.547Z,2.90
2022-12-23T09:01:14.612Z,2.88
2022-12-23T09:03:42.236Z,2.40
2022-12-23T09:06:23.220Z,2.67
2022-12-23T09:08:53.936Z,2.53
2022-12-23T09:11:23.264Z,2.63
2022-12-23T09:13:50.219Z,2.20
2022-12-23T09:16:17.067Z,2.13
2022-12-23T09:18:43.753Z,1.88
2022-12-23T09:21:14.090Z,2.67
2022-12-23T09:23:41.429Z,2.90
2022-12-23T09:26:10.177Z,1.88
2022-12-23T09:28:37.086Z,2.10
2022-12-23T09:31:08.880Z,2.22
2022-12-23T09:33:36.388Z,2.28
2022-12-23T09:36:04.249Z,2.63
2022-12-23T09:38:31.417Z,2.03
2022-12-23T09:41:17.957Z,1.92
2022-12-23T09:44:03.211Z,1.70
2022-12-23T09:46:34.060Z,2.10
2022-12-23T09:49:11.147Z,2.53
2022-12-23T09:51:38.364Z,2.13
2022-12-23T09:54:11.971Z,1.73
2022-12-23T09:56:56.764Z,1.77
2022-12-23T09:59:42.127Z,2.25
2022-12-23T10:02:22.887Z,1.95
2022-12-23T10:05:23.649Z,1.98
2022-12-23T10:07:55.836Z,1.80
2022-12-23T10:10:45.683Z,1.75
2022-12-23T10:13:25.583Z,2.40
2022-12-23T10:15:54.427Z,1.92
2022-12-23T10:18:28.101Z,2.13
2022-12-23T10:21:03.150Z,1.35
2022-12-23T10:23:42.626Z,1.90
2022-12-23T10:26:31.990Z,1.58
2022-12-23T10:29:20.036Z,1.48
2022-12-23T10:32:02.091Z,1.63
2022-12-23T10:34:49.424Z,1.70
2022-12-23T10:37:38.810Z,1.65
2022-12-23T10:40:23.511Z,1.38
2022-12-23T10:43:14.687Z,1.67
2022-12-23T10:45:47.178Z,1.23
2022-12-23T10:48:27.648Z,2.40
2022-12-23T10:51:03.157Z,1.60
2022-12-23T10:53:36.991Z,1.70
2022-12-23T10:56:05.421Z,2.17
2022-12-23T10:58:32.160Z,1.13
2022-12-23T11:01:04.764Z,1.65
2022-12-23T11:04:03.773Z,1.55
2022-12-23T11:06:37.078Z,1.48
2022-12-23T11:09:05.603Z,1.50
2022-12-23T11:11:55.555Z,1.63
2022-12-23T11:14:41.495Z,1.27
2022-12-23T11:17:28.789Z,0.93
2022-12-23T11:20:10.380Z,1.75
2022-12-23T11:22:48.213Z,1.73
2022-12-23T11:25:29.630Z,1.42
2022-12-23T11:28:12.321Z,1.48
2022-12-23T11:30:55.129Z,1.63
2022-12-23T11:33:25.719Z,1.73
2022-12-23T11:36:13.636Z,1.85
2022-12-23T11:39:14.088Z,1.83
2022-12-23T11:41:45.632Z,2.00
2022-12-23T11:44:30.877Z,1.98
2022-12-23T11:46:57.708Z,1.70
2022-12-23T11:49:28.594Z,1.45
2022-12-23T11:52:09.793Z,1.50
2022-12-23T11:54:36.991Z,1.75
2022-12-23T11:57:08.042Z,1.60
2022-12-23T11:59:42.285Z,2.28
2022-12-23T12:02:39.824Z,1.40
2022-12-23T12:05:15.453Z,1.88
2022-12-23T12:07:45.486Z,1.67
2022-12-23T12:10:33.657Z,1.63
2022-12-23T12:13:05.325Z,1.92
2022-12-23T12:15:44.147Z,1.90
2022-12-23T12:18:15.858Z,1.77
2022-12-23T12:20:47.150Z,2.63
2022-12-23T12:23:32.610Z,1.60
2022-12-23T12:26:06.592Z,2.00
2022-12-23T12:28:38.352Z,2.35
2022-12-23T12:31:23.442Z,1.80
2022-12-23T12:34:05.132Z,1.90
2022-12-23T12:36:50.443Z,4.45
2022-12-23T12:39:28.007Z,3.22
2022-12-23T12:42:06.056Z,2.63
2022-12-23T12:45:00.458Z,2.33
2022-12-23T12:47:53.387Z,3.70
2022-12-23T12:50:33.129Z,2.50
2022-12-23T12:53:11.025Z,1.92
2022-12-23T12:55:42.489Z,3.30
2022-12-23T12:58:19.669Z,3.30
2022-12-23T13:01:10.065Z,2.70
2022-12-23T13:04:17.997Z,2.70
2022-12-23T13:06:55.731Z,2.03
2022-12-23T13:09:59.056Z,2.50
2022-12-23T13:13:01.027Z,3.10
2022-12-23T13:15:41.035Z,2.45
2022-12-23T13:18:20.713Z,2.33
2022-12-23T13:20:50.148Z,4.40
2022-12-23T13:23:44.065Z,3.20
2022-12-23T13:26:39.186Z,2.70
2022-12-23T13:29:29.824Z,2.60
2022-12-23T13:31:56.319Z,2.95
2022-12-23T13:34:31.864Z,4.53
2022-12-23T13:37:47.943Z,2.05
2022-12-23T13:40:54.962Z,2.42
2022-12-23T13:43:28.876Z,3.13
2022-12-23T13:46:00.059Z,2.40
2022-12-23T13:48:35.710Z,2.58
2022-12-23T13:51:25.012Z,2.40
2022-12-23T13:54:23.557Z,2.17
2022-12-23T13:57:08.365Z,2.92
2022-12-23T13:59:44.436Z,3.35
2022-12-23T14:02:50.790Z,2.42
2022-12-23T14:05:35.915Z,3.88
2022-12-23T14:08:18.410Z,2.97
2022-12-23T14:10:55.056Z,3.58
2022-12-23T14:13:25.136Z,3.95
2022-12-23T14:15:59.603Z,4.95
2022-12-23T14:18:55.221Z,5.88
2022-12-23T14:21:41.622Z,8.15
2022-12-23T14:24:33.486Z,7.88
2022-12-23T14:27:13.445Z,6.28
2022-12-23T14:29:50.426Z,7.13
2022-12-23T14:32:36.254Z,5.38
2022-12-23T14:35:05.203Z,6.50
2022-12-23T14:37:34.480Z,4.65
2022-12-23T14:40:39.046Z,4.53
2022-12-23T14:43:26.461Z,4.40
2022-12-23T14:46:06.747Z,3.45
2022-12-23T14:48:36.102Z,4.20
2022-12-23T14:51:31.482Z,4.60
2022-12-23T14:53:58.021Z,3.72
2022-12-23T14:56:40.283Z,4.20
2022-12-23T14:59:29.423Z,7.68
2022-12-23T15:01:59.547Z,5.18
2022-12-23T15:04:30.261Z,7.10
2022-12-23T15:07:03.332Z,3.00
2022-12-23T15:09:46.355Z,4.97
2022-12-23T15:12:18.814Z,3.47
2022-12-23T15:14:56.400Z,4.80
2022-12-23T15:17:27.577Z,5.77
2022-12-23T15:20:10.717Z,4.20
2022-12-23T15:22:38.996Z,3.72
2022-12-23T15:25:18.334Z,3.70
2022-12-23T15:27:45.083Z,3.70
2022-12-23T15:30:13.628Z,5.35
2022-12-23T15:32:46.622Z,4.85
2022-12-23T15:35:25.132Z,3.95
2022-12-23T15:37:52.227Z,8.15
2022-12-23T15:40:38.786Z,4.38
2022-12-23T15:43:19.016Z,6.13
2022-12-23T15:45:45.981Z,3.67
2022-12-23T15:48:30.096Z,7.03
2022-12-23T15:51:03.997Z,7.00
2022-12-23T15:53:44.036Z,4.30
2022-12-23T15:56:23.885Z,5.25
2022-12-23T15:58:50.747Z,5.55
2022-12-23T16:01:22.005Z,4.43
2022-12-23T16:03:55.232Z,4.47
2022-12-23T16:06:35.725Z,5.47
2022-12-23T16:09:22.275Z,3.70
2022-12-23T16:11:57.991Z,4.57
2022-12-23T16:14:30.872Z,5.03
2022-12-23T16:17:09.844Z,4.45
2022-12-23T16:19:38.665Z,4.65
2022-12-23T16:22:33.942Z,3.35
2022-12-23T16:25:03.469Z,4.57
2022-12-23T16:27:43.267Z,5.10
2022-12-23T16:30:15.738Z,6.60
2022-12-23T16:32:56.815Z,2.88
2022-12-23T16:35:37.578Z,4.57
2022-12-23T16:38:22.771Z,6.15
2022-12-23T16:40:53.761Z,3.67
2022-12-23T16:43:22.661Z,3.25
2022-12-23T16:45:52.976Z,4.03
2022-12-23T16:48:36.915Z,4.53
2022-12-23T16:51:07.427Z,4.18
2022-12-23T16:53:34.381Z,3.95
2022-12-23T16:56:01.513Z,2.92
2022-12-23T16:58:29.209Z,3.03
2022-12-23T17:00:56.564Z,4.22
2022-12-23T17:03:23.105Z,2.85
2022-12-23T17:05:49.670Z,5.40
2022-12-23T17:08:16.292Z,3.67
2022-12-23T17:10:44.680Z,3.53
2022-12-23T17:13:17.431Z,6.22
2022-12-23T17:15:44.754Z,3.72
2022-12-23T17:18:16.815Z,2.97
2022-12-23T17:20:45.329Z,3.35
2022-12-23T17:23:27.067Z,4.55
2022-12-23T17:25:53.950Z,3.42
2022-12-23T17:28:21.378Z,2.92
2022-12-23T17:30:54.384Z,2.78
2022-12-23T17:33:21.452Z,3.38
2022-12-23T17:35:48.095Z,2.88
2022-12-23T17:38:16.560Z,3.70
2022-12-23T17:40:46.657Z,2.88
2022-12-23T17:43:15.117Z,4.18
2022-12-23T17:45:42.251Z,2.63
2022-12-23T17:48:19.959Z,3.88
2022-12-23T17:50:47.949Z,2.83
2022-12-23T17:53:16.188Z,3.70
2022-12-23T17:55:42.809Z,2.65
2022-12-23T17:58:09.765Z,2.85
2022-12-23T18:00:38.148Z,2.85
2022-12-23T18:03:22.721Z,2.65
2022-12-23T18:05:51.144Z,2.55
2022-12-23T18:08:20.940Z,3.72
2022-12-23T18:10:47.675Z,2.78
2022-12-23T18:13:18.423Z,2.90
2022-12-23T18:15:45.452Z,2.33
2022-12-23T18:18:28.653Z,7.28
2022-12-23T18:20:58.202Z,2.88
2022-12-23T18:23:28.139Z,2.22
2022-12-23T18:25:55.763Z,2.75
2022-12-23T18:28:22.803Z,3.60
2022-12-23T18:30:51.449Z,3.00
2022-12-23T18:33:18.522Z,2.55
2022-12-23T18:35:47.415Z,3.40
2022-12-23T18:38:15.205Z,2.75
2022-12-23T18:40:42.794Z,3.22
2022-12-23T18:43:24.115Z,3.20
2022-12-23T18:45:53.602Z,2.58
2022-12-23T18:48:21.487Z,3.17
2022-12-23T18:50:48.414Z,2.42
2022-12-23T18:53:23.862Z,2.63
2022-12-23T18:55:52.246Z,2.63
2022-12-23T18:58:19.337Z,3.85
2022-12-23T19:00:47.885Z,3.15
2022-12-23T19:03:25.148Z,3.13
2022-12-23T19:05:53.001Z,3.05
2022-12-23T19:08:26.388Z,2.95
2022-12-23T19:10:54.024Z,3.13
2022-12-23T19:13:20.565Z,3.10
2022-12-23T19:15:47.390Z,2.72
2022-12-23T19:18:19.167Z,3.33
2022-12-23T19:20:46.967Z,2.90
2022-12-23T19:23:14.308Z,3.50
2022-12-23T19:25:42.135Z,2.75
2022-12-23T19:28:09.504Z,3.65
2022-12-23T19:30:36.614Z,3.00
2022-12-23T19:33:03.263Z,2.88
2022-12-23T19:35:29.802Z,3.53
2022-12-23T19:37:56.386Z,3.53
2022-12-23T19:40:22.951Z,2.10
2022-12-23T19:42:49.501Z,3.80
2022-12-23T19:45:17.076Z,2.97
2022-12-23T19:47:43.780Z,3.10
2022-12-23T19:50:11.777Z,3.33
2022-12-23T19:52:38.428Z,3.60
2022-12-23T19:55:05.536Z,3.60
2022-12-23T19:57:32.119Z,3.50
2022-12-23T19:59:58.949Z,3.67
2022-12-23T20:02:25.639Z,3.70
2022-12-23T20:04:52.203Z,3.25
2022-12-23T20:07:18.765Z,3.57
2022-12-23T20:09:45.305Z,3.58
2022-12-23T20:12:12.091Z,4.35
2022-12-23T20:14:38.717Z,3.90
2022-12-23T20:17:05.255Z,3.28
2022-12-23T20:19:32.232Z,3.90
2022-12-23T20:21:58.808Z,4.05
2022-12-23T20:24:25.416Z,3.78
2022-12-23T20:26:52.115Z,3.42
2022-12-23T20:29:18.716Z,3.35
2022-12-23T20:31:45.676Z,3.65
2022-12-23T20:34:16.101Z,3.83
2022-12-23T20:36:42.957Z,3.65
2022-12-23T20:39:09.910Z,4.30
2022-12-23T20:41:36.507Z,4.07
2022-12-23T20:44:33.729Z,3.42
2022-12-23T20:46:49.737Z,3.85
2022-12-23T20:49:16.358Z,3.60
2022-12-23T20:51:42.928Z,3.13
2022-12-23T20:54:09.775Z,3.65
2022-12-23T20:56:36.328Z,3.53
2022-12-23T20:59:03.892Z,3.53
2022-12-23T21:01:33.225Z,3.80
2022-12-23T21:04:02.228Z,3.38
2022-12-23T21:06:30.856Z,3.90
2022-12-23T21:08:59.780Z,3.35
2022-12-23T21:11:31.388Z,3.60
2022-12-23T21:14:06.449Z,3.38
2022-12-23T21:16:35.391Z,4.72
2022-12-23T21:19:02.182Z,3.83
2022-12-23T21:21:31.068Z,3.63
2022-12-23T21:24:04.516Z,3.83
2022-12-23T21:26:33.246Z,3.28
2022-12-23T21:29:01.402Z,4.25
2022-12-23T21:31:29.835Z,3.25
2022-12-23T21:33:57.329Z,3.50
2022-12-23T21:36:26.547Z,2.97
2022-12-23T21:38:53.178Z,3.33
2022-12-23T21:41:22.093Z,3.33
2022-12-23T21:43:49.479Z,3.25
2022-12-23T21:46:19.249Z,3.90
2022-12-23T21:48:45.984Z,3.47
2022-12-23T21:51:24.506Z,3.50
2022-12-23T21:53:53.483Z,3.55
2022-12-23T21:56:24.338Z,2.95
2022-12-23T21:58:55.026Z,3.90
2022-12-23T22:01:22.071Z,3.78
2022-12-23T22:03:49.913Z,3.35
2022-12-23T22:06:19.947Z,4.55
2022-12-23T22:08:47.348Z,3.97
2022-12-23T22:11:30.071Z,3.92
2022-12-23T22:13:58.538Z,3.60
2022-12-23T22:16:27.209Z,4.00
2022-12-23T22:18:55.128Z,3.92
2022-12-23T22:21:23.572Z,3.97
2022-12-23T22:23:51.725Z,3.28
2022-12-23T22:26:25.170Z,4.40
2022-12-23T22:28:54.318Z,3.90
2022-12-23T22:31:30.622Z,3.63
2022-12-23T22:33:57.399Z,3.45
2022-12-23T22:36:24.066Z,4.03
2022-12-23T22:38:53.366Z,3.53
2022-12-23T22:41:20.523Z,3.58
2022-12-23T22:43:47.396Z,3.92
2022-12-23T22:46:14.133Z,3.65
2022-12-23T22:48:40.840Z,3.70
2022-12-23T22:51:18.559Z,3.60
2022-12-23T22:53:45.877Z,3.83
2022-12-23T22:56:14.796Z,3.45
2022-12-23T22:58:41.415Z,3.45
2022-12-23T23:01:27.597Z,4.38
2022-12-23T23:03:58.499Z,3.47
2022-12-23T23:06:27.200Z,3.60
2022-12-23T23:08:54.688Z,3.38
2022-12-23T23:11:21.412Z,3.50
2022-12-23T23:13:48.415Z,3.00
2022-12-23T23:16:15.032Z,4.00
2022-12-23T23:18:41.628Z,3.63
2022-12-23T23:21:09.721Z,4.30
2022-12-23T23:23:36.415Z,3.60
2022-12-23T23:26:03.449Z,4.30
2022-12-23T23:28:30.395Z,3.50
2022-12-23T23:31:17.114Z,5.00
2022-12-23T23:33:43.467Z,4.00
2022-12-23T23:36:10.570Z,3.75
2022-12-23T23:38:37.270Z,4.32
2022-12-23T23:41:04.286Z,4.18
2022-12-23T23:43:30.860Z,3.45
2022-12-23T23:45:57.515Z,5.00
2022-12-23T23:48:24.090Z,5.53
2022-12-23T23:50:51.343Z,4.40
2022-12-23T23:53:17.986Z,4.18
2022-12-23T23:55:44.629Z,4.68
2022-12-23T23:58:11.866Z,4.82
